createdAt,value
2023-03-18T00:08:19.588Z,44.42
2023-03-18T00:20:19.983Z,45.22
2023-03-18T00:32:20.456Z,44.68
2023-03-18T00:44:20.965Z,45.10
2023-03-18T00:56:21.376Z,44.69
2023-03-18T01:08:21.838Z,45.13
2023-03-18T01:20:22.356Z,45.33
2023-03-18T01:32:22.873Z,46.90
2023-03-18T01:44:23.181Z,44.29
2023-03-18T01:56:26.404Z,44.20
2023-03-18T02:08:24.056Z,44.51
2023-03-18T02:20:24.959Z,44.92
2023-03-18T02:32:25.000Z,46.59
2023-03-18T02:44:25.460Z,45.25
2023-03-18T02:56:25.889Z,45.02
2023-03-18T03:08:26.357Z,44.66
2023-03-18T03:20:26.789Z,48.22
2023-03-18T03:32:27.244Z,49.17
2023-03-18T03:44:29.900Z,47.71
2023-03-18T03:56:28.181Z,46.07
2023-03-18T04:08:28.607Z,45.59
2023-03-18T04:20:31.520Z,44.65
2023-03-18T04:32:29.558Z,46.17
2023-03-18T04:44:29.949Z,46.12
2023-03-18T04:56:30.384Z,54.59
2023-03-18T05:08:30.840Z,57.54
2023-03-18T05:20:31.316Z,56.58
2023-03-18T05:32:33.501Z,57.84
2023-03-18T05:44:34.905Z,56.34
2023-03-18T05:56:32.656Z,59.89
2023-03-18T06:08:33.108Z,61.30
2023-03-18T06:20:33.603Z,60.17
2023-03-18T06:32:34.196Z,59.59
2023-03-18T06:44:34.471Z,58.45
2023-03-18T06:56:37.639Z,56.26
2023-03-18T07:08:35.394Z,51.24
2023-03-18T07:20:35.832Z,50.71
2023-03-18T07:32:36.243Z,44.86
2023-03-18T07:44:39.429Z,42.55
2023-03-18T07:56:37.590Z,42.33
2023-03-18T08:08:37.629Z,40.18
2023-03-18T08:20:38.166Z,39.25
2023-03-18T08:32:38.614Z,37.52
2023-03-18T08:44:39.035Z,35.56
2023-03-18T08:56:39.448Z,37.11
2023-03-18T09:08:39.869Z,36.31
2023-03-18T09:20:40.375Z,33.14
2023-03-18T09:32:40.870Z,35.01
2023-03-18T09:44:41.249Z,34.91
2023-03-18T09:56:41.736Z,36.42
2023-03-18T10:08:42.178Z,36.81
2023-03-18T10:20:42.601Z,35.96
2023-03-18T10:32:49.935Z,35.72
2023-03-18T10:44:43.529Z,33.85
2023-03-18T10:56:43.980Z,33.67
2023-03-18T11:08:44.465Z,33.47
2023-03-18T11:20:44.925Z,32.06
2023-03-18T11:32:45.462Z,30.93
2023-03-18T11:44:45.792Z,31.36
2023-03-18T11:56:46.250Z,30.31
2023-03-18T12:08:46.746Z,31.52
2023-03-18T12:20:47.178Z,32.17
2023-03-18T12:32:47.684Z,30.00
2023-03-18T12:44:48.077Z,30.32
2023-03-18T12:56:48.498Z,30.65
2023-03-18T13:08:48.996Z,31.16
2023-03-18T13:20:49.456Z,31.12
2023-03-18T13:32:49.945Z,29.57
2023-03-18T13:44:50.354Z,29.81
2023-03-18T13:56:50.810Z,29.84
2023-03-18T14:08:51.292Z,30.06
2023-03-18T14:20:51.758Z,31.48
2023-03-18T14:32:52.253Z,31.36
2023-03-18T14:44:52.656Z,30.52
2023-03-18T14:56:53.129Z,30.00
2023-03-18T15:08:53.591Z,30.78
2023-03-18T15:20:54.002Z,32.36
2023-03-18T15:32:54.535Z,34.41
2023-03-18T15:44:54.925Z,35.77
2023-03-18T15:56:55.458Z,35.96
2023-03-18T16:08:55.869Z,36.67
2023-03-18T16:20:56.296Z,38.12
2023-03-18T16:32:56.787Z,41.15
2023-03-18T16:44:59.489Z,42.88
2023-03-18T16:56:57.680Z,43.68
2023-03-18T17:08:58.102Z,45.20
2023-03-18T17:21:00.261Z,49.70
2023-03-18T17:32:59.100Z,48.27
2023-03-18T17:44:59.485Z,49.58
2023-03-18T17:56:59.938Z,50.79
2023-03-18T18:09:00.685Z,51.82
2023-03-18T18:21:00.845Z,57.98
2023-03-18T18:33:01.318Z,54.50
2023-03-18T18:45:01.757Z,56.07
2023-03-18T18:57:02.194Z,56.75
2023-03-18T19:09:02.675Z,58.03
2023-03-18T19:21:03.104Z,58.77
2023-03-18T19:33:03.571Z,59.12
2023-03-18T19:45:06.701Z,61.04
2023-03-18T19:57:04.470Z,63.65
2023-03-18T20:09:04.889Z,64.30
2023-03-18T20:21:05.360Z,63.88
2023-03-18T20:33:05.893Z,67.40
2023-03-18T20:45:06.297Z,67.90
2023-03-18T20:57:06.735Z,66.85
2023-03-18T21:09:07.184Z,68.44
2023-03-18T21:21:07.624Z,69.10
2023-03-18T21:33:10.834Z,67.33
2023-03-18T21:45:08.517Z,72.10
2023-03-18T21:57:08.971Z,72.53
2023-03-18T22:09:09.433Z,72.78
2023-03-18T22:21:12.632Z,73.36
2023-03-18T22:33:10.364Z,76.05
2023-03-18T22:45:12.515Z,77.56
2023-03-18T22:57:11.254Z,75.27
2023-03-18T23:09:11.722Z,74.16
2023-03-18T23:21:14.845Z,76.67
2023-03-18T23:33:12.641Z,78.17
2023-03-18T23:45:13.057Z,79.41
2023-03-18T23:57:16.219Z,78.31
